createdAt,value
2018-04-25T00:00:51.872Z,28.06
2018-04-25T00:01:50.515Z,28.02
2018-04-25T00:02:51.293Z,28.12
2018-04-25T00:03:52.102Z,28.14
2018-04-25T00:04:50.518Z,28.05
2018-04-25T00:05:49.921Z,28.09
2018-04-25T00:06:49.880Z,28.06
2018-04-25T00:07:49.824Z,28.03
2018-04-25T00:08:49.923Z,28.05
2018-04-25T00:09:50.446Z,28.02
2018-04-25T00:10:49.755Z,27.99
2018-04-25T00:11:49.750Z,28.01
2018-04-25T00:12:49.760Z,27.98
2018-04-25T00:13:49.686Z,27.94
2018-04-25T00:14:49.780Z,27.99
2018-04-25T00:15:49.732Z,27.87
2018-04-25T00:16:49.626Z,27.89
2018-04-25T00:17:49.605Z,27.89
2018-04-25T00:18:49.664Z,27.75
2018-04-25T00:19:49.657Z,27.71
2018-04-25T00:20:49.534Z,27.69
2018-04-25T00:21:49.535Z,27.59
2018-04-25T00:22:49.497Z,27.64
2018-04-25T00:23:50.088Z,27.64
2018-04-25T00:24:49.974Z,27.64
2018-04-25T00:25:49.565Z,27.64
2018-04-25T00:26:49.393Z,27.59
2018-04-25T00:27:49.916Z,27.61
2018-04-25T00:28:49.338Z,27.53
2018-04-25T00:29:49.318Z,27.45
2018-04-25T00:30:49.288Z,27.48
2018-04-25T00:31:49.346Z,27.49
2018-04-25T00:32:49.777Z,27.48
2018-04-25T00:33:49.206Z,27.46
2018-04-25T00:34:49.181Z,27.46
2018-04-25T00:35:49.156Z,27.46
2018-04-25T00:36:49.189Z,27.45
2018-04-25T00:37:49.650Z,27.51
2018-04-25T00:38:49.104Z,27.41
2018-04-25T00:39:49.075Z,27.46
2018-04-25T00:40:49.060Z,27.31
2018-04-25T00:41:49.060Z,27.19
2018-04-25T00:42:49.035Z,27.27
2018-04-25T00:43:48.987Z,27.26
2018-04-25T00:44:49.495Z,27.28
2018-04-25T00:45:48.939Z,27.24
2018-04-25T00:46:49.002Z,27.33
2018-04-25T00:47:49.379Z,27.26
2018-04-25T00:48:49.374Z,27.24
2018-04-25T00:49:48.845Z,27.27
2018-04-25T00:50:48.864Z,27.23
2018-04-25T00:51:48.899Z,27.28
2018-04-25T00:52:48.821Z,27.24
2018-04-25T00:53:48.737Z,27.27
2018-04-25T00:54:48.763Z,27.30
2018-04-25T00:55:48.690Z,27.26
2018-04-25T00:56:48.803Z,27.26
2018-04-25T00:57:48.642Z,27.24
2018-04-25T00:58:48.632Z,27.19
2018-04-25T00:59:48.608Z,27.13
2018-04-25T01:00:48.817Z,27.12
2018-04-25T01:01:48.633Z,27.09
2018-04-25T01:02:48.553Z,27.12
2018-04-25T01:03:48.533Z,27.11
2018-04-25T01:04:48.472Z,27.09
2018-04-25T01:05:48.471Z,27.08
2018-04-25T01:06:48.406Z,26.99
2018-04-25T01:07:48.397Z,26.97
2018-04-25T01:08:48.504Z,26.87
2018-04-25T01:09:48.523Z,26.81
2018-04-25T01:10:48.302Z,26.90
2018-04-25T01:11:48.617Z,26.81
2018-04-25T01:12:48.278Z,26.82
2018-04-25T01:13:48.783Z,26.79
2018-04-25T01:14:48.335Z,26.84
2018-04-25T01:15:48.216Z,26.82
2018-04-25T01:16:48.155Z,26.82
2018-04-25T01:17:48.121Z,26.84
2018-04-25T01:18:48.107Z,26.84
2018-04-25T01:19:48.190Z,26.74
2018-04-25T01:20:48.086Z,26.87
2018-04-25T01:21:48.096Z,26.90
2018-04-25T01:22:48.015Z,26.86
2018-04-25T01:23:48.606Z,26.74
2018-04-25T01:24:48.144Z,26.71
2018-04-25T01:25:47.941Z,26.75
2018-04-25T01:26:47.911Z,26.69
2018-04-25T01:27:47.897Z,26.60
2018-04-25T01:28:47.905Z,26.69
2018-04-25T01:29:47.968Z,26.61
2018-04-25T01:30:47.811Z,26.57
2018-04-25T01:31:47.784Z,26.59
2018-04-25T01:32:48.297Z,26.60
2018-04-25T01:33:47.763Z,26.68
2018-04-25T01:34:48.321Z,26.71
2018-04-25T01:35:47.736Z,26.67
2018-04-25T01:36:47.669Z,26.63
2018-04-25T01:37:48.192Z,26.54
2018-04-25T01:38:47.605Z,26.50
2018-04-25T01:39:47.637Z,26.45
2018-04-25T01:40:48.251Z,26.45
2018-04-25T01:41:47.755Z,26.37
2018-04-25T01:42:47.501Z,26.32
2018-04-25T01:43:47.465Z,26.34
2018-04-25T01:44:47.462Z,26.37
2018-04-25T01:45:47.452Z,26.41
2018-04-25T01:46:47.725Z,26.41
2018-04-25T01:47:47.980Z,26.39
2018-04-25T01:48:47.886Z,26.39
2018-04-25T01:49:47.853Z,26.35
2018-04-25T01:50:47.328Z,26.30
2018-04-25T01:51:47.866Z,26.32
2018-04-25T01:52:47.359Z,26.32
2018-04-25T01:53:47.874Z,26.32
2018-04-25T01:54:47.255Z,26.39
2018-04-25T01:55:47.217Z,26.42
2018-04-25T01:56:47.658Z,26.30
2018-04-25T01:57:47.775Z,26.44
2018-04-25T01:58:47.100Z,26.41
2018-04-25T01:59:47.716Z,26.39
2018-04-25T02:00:47.049Z,26.38
2018-04-25T02:01:47.060Z,26.31
2018-04-25T02:02:47.572Z,26.41
2018-04-25T02:03:47.508Z,26.27
2018-04-25T02:04:47.110Z,26.31
2018-04-25T02:05:47.860Z,26.32
2018-04-25T02:06:46.919Z,26.30
2018-04-25T02:07:46.977Z,26.30
2018-04-25T02:08:46.931Z,26.31
2018-04-25T02:09:46.903Z,26.30
2018-04-25T02:10:47.370Z,26.19
2018-04-25T02:11:47.394Z,26.32
2018-04-25T02:12:46.818Z,26.32
2018-04-25T02:13:47.073Z,26.34
2018-04-25T02:14:46.734Z,26.32
2018-04-25T02:15:46.652Z,26.31
2018-04-25T02:16:47.255Z,26.32
2018-04-25T02:17:46.628Z,26.31
2018-04-25T02:18:46.635Z,26.22
2018-04-25T02:19:47.100Z,26.19
2018-04-25T02:20:46.632Z,26.19
2018-04-25T02:21:46.521Z,26.22
2018-04-25T02:22:46.497Z,26.17
2018-04-25T02:23:46.566Z,26.27
2018-04-25T02:24:47.016Z,26.20
2018-04-25T02:25:47.385Z,26.26
2018-04-25T02:26:46.437Z,26.20
2018-04-25T02:27:46.488Z,26.22
2018-04-25T02:28:46.461Z,26.19
2018-04-25T02:29:47.754Z,26.19
2018-04-25T02:30:47.284Z,26.22
2018-04-25T02:31:46.416Z,26.16
2018-04-25T02:32:46.281Z,26.27
2018-04-25T02:33:46.253Z,26.27
2018-04-25T02:34:46.814Z,26.22
2018-04-25T02:35:46.741Z,26.20
2018-04-25T02:36:46.145Z,26.16
2018-04-25T02:37:46.149Z,26.20
2018-04-25T02:38:46.107Z,26.12
2018-04-25T02:39:46.086Z,26.12
2018-04-25T02:40:46.167Z,26.15
2018-04-25T02:41:46.071Z,26.09
2018-04-25T02:42:46.069Z,26.04
2018-04-25T02:43:45.996Z,26.07
2018-04-25T02:44:46.572Z,26.04
2018-04-25T02:45:46.593Z,26.04
2018-04-25T02:46:46.081Z,26.12
2018-04-25T02:47:45.913Z,26.12
2018-04-25T02:48:45.873Z,26.06
2018-04-25T02:49:45.864Z,26.09
2018-04-25T02:50:45.874Z,26.07
2018-04-25T02:51:46.002Z,26.12
2018-04-25T02:52:46.441Z,26.09
2018-04-25T02:53:45.760Z,26.11
2018-04-25T02:54:45.725Z,26.07
2018-04-25T02:55:45.812Z,26.12
2018-04-25T02:56:45.745Z,26.07
2018-04-25T02:57:46.229Z,26.16
2018-04-25T02:58:45.927Z,26.12
2018-04-25T02:59:45.535Z,26.04
2018-04-25T03:00:45.521Z,26.20
2018-04-25T03:01:45.595Z,26.22
2018-04-25T03:02:45.579Z,26.22
2018-04-25T03:03:45.564Z,26.16
2018-04-25T03:04:45.444Z,26.16
2018-04-25T03:05:45.429Z,26.11
2018-04-25T03:06:45.510Z,26.03
2018-04-25T03:07:45.384Z,26.06
2018-04-25T03:08:45.367Z,26.06
2018-04-25T03:09:45.315Z,25.91
2018-04-25T03:10:45.283Z,26.06
2018-04-25T03:11:45.248Z,26.04
2018-04-25T03:12:45.230Z,26.03
2018-04-25T03:13:45.482Z,26.09
2018-04-25T03:14:45.398Z,26.07
2018-04-25T03:15:45.157Z,25.99
2018-04-25T03:16:45.240Z,25.97
2018-04-25T03:17:45.274Z,26.06
2018-04-25T03:18:45.341Z,25.96
2018-04-25T03:19:45.034Z,25.97
2018-04-25T03:20:45.201Z,26.01
2018-04-25T03:21:45.201Z,26.03
2018-04-25T03:22:45.132Z,26.00
2018-04-25T03:23:45.125Z,25.94
2018-04-25T03:24:45.435Z,26.06
2018-04-25T03:25:44.967Z,25.96
2018-04-25T03:26:44.911Z,25.99
2018-04-25T03:27:44.843Z,25.99
2018-04-25T03:28:44.968Z,26.00
2018-04-25T03:29:44.821Z,25.93
2018-04-25T03:30:44.772Z,25.96
2018-04-25T03:31:44.702Z,25.94
2018-04-25T03:32:45.211Z,25.86
2018-04-25T03:33:44.679Z,25.85
2018-04-25T03:34:45.460Z,25.93
2018-04-25T03:35:45.134Z,25.88
2018-04-25T03:36:44.598Z,25.94
2018-04-25T03:37:44.595Z,25.97
2018-04-25T03:38:44.527Z,25.94
2018-04-25T03:39:44.491Z,25.99
2018-04-25T03:40:44.622Z,25.97
2018-04-25T03:41:44.528Z,25.96
2018-04-25T03:42:44.441Z,25.96
2018-04-25T03:43:44.393Z,26.01
2018-04-25T03:44:44.919Z,26.00
2018-04-25T03:45:44.450Z,25.96
2018-04-25T03:46:44.440Z,25.88
2018-04-25T03:47:44.363Z,25.94
2018-04-25T03:48:44.918Z,25.89
2018-04-25T03:49:44.328Z,25.84
2018-04-25T03:50:44.281Z,25.82
2018-04-25T03:51:45.034Z,25.88
2018-04-25T03:52:44.177Z,25.85
2018-04-25T03:53:44.741Z,25.85
2018-04-25T03:54:44.145Z,25.85
2018-04-25T03:55:44.091Z,25.82
2018-04-25T03:56:44.417Z,25.82
2018-04-25T03:57:44.169Z,25.88
2018-04-25T03:58:44.015Z,25.79
2018-04-25T03:59:44.081Z,25.78
2018-04-25T04:00:43.972Z,25.85
2018-04-25T04:01:44.330Z,25.76
2018-04-25T04:02:43.985Z,25.84
2018-04-25T04:03:44.089Z,25.81
2018-04-25T04:04:44.004Z,25.81
2018-04-25T04:05:43.853Z,25.85
2018-04-25T04:06:43.813Z,25.75
2018-04-25T04:07:43.837Z,25.70
2018-04-25T04:08:43.875Z,25.75
2018-04-25T04:09:43.825Z,25.70
2018-04-25T04:10:43.828Z,25.67
2018-04-25T04:11:43.775Z,25.69
2018-04-25T04:12:43.836Z,25.67
2018-04-25T04:13:43.883Z,25.74
2018-04-25T04:14:43.672Z,25.81
2018-04-25T04:15:43.635Z,25.84
2018-04-25T04:16:43.551Z,25.85
2018-04-25T04:17:43.567Z,25.81
2018-04-25T04:18:43.570Z,25.82
2018-04-25T04:19:43.470Z,25.81
2018-04-25T04:20:43.533Z,25.81
2018-04-25T04:21:43.434Z,25.79
2018-04-25T04:22:43.394Z,25.79
2018-04-25T04:23:43.370Z,25.76
2018-04-25T04:24:43.412Z,25.71
2018-04-25T04:25:43.323Z,25.69
2018-04-25T04:26:43.288Z,25.69
2018-04-25T04:27:43.243Z,25.70
2018-04-25T04:28:43.265Z,25.64
2018-04-25T04:29:43.260Z,25.64
2018-04-25T04:30:43.164Z,25.63
2018-04-25T04:31:43.196Z,25.71
2018-04-25T04:32:43.142Z,25.64
2018-04-25T04:33:43.135Z,25.67
2018-04-25T04:34:43.059Z,25.60
2018-04-25T04:35:43.210Z,25.64
2018-04-25T04:36:43.062Z,25.64
2018-04-25T04:37:42.992Z,25.63
2018-04-25T04:38:42.990Z,25.56
2018-04-25T04:39:42.943Z,25.51
2018-04-25T04:40:43.037Z,25.59
2018-04-25T04:41:42.912Z,25.59
2018-04-25T04:42:42.845Z,25.63
2018-04-25T04:43:42.852Z,25.52
2018-04-25T04:44:42.838Z,25.57
2018-04-25T04:45:42.873Z,25.63
2018-04-25T04:46:42.793Z,25.52
2018-04-25T04:47:42.744Z,25.49
2018-04-25T04:48:42.725Z,25.49
2018-04-25T04:49:42.687Z,25.42
2018-04-25T04:50:42.821Z,25.52
2018-04-25T04:51:42.644Z,25.47
2018-04-25T04:52:42.619Z,25.47
2018-04-25T04:53:42.595Z,25.41
2018-04-25T04:54:42.559Z,25.37
2018-04-25T04:55:42.588Z,25.30
2018-04-25T04:56:42.496Z,25.32
2018-04-25T04:57:42.499Z,25.47
2018-04-25T04:58:42.458Z,25.45
2018-04-25T04:59:42.485Z,25.32
2018-04-25T05:00:42.407Z,25.45
2018-04-25T05:01:42.490Z,25.42
2018-04-25T05:02:42.333Z,25.49
2018-04-25T05:03:42.350Z,25.45
2018-04-25T05:04:42.307Z,25.39
2018-04-25T05:05:42.268Z,25.41
2018-04-25T05:06:42.306Z,25.30
2018-04-25T05:07:42.228Z,25.42
2018-04-25T05:08:42.278Z,25.41
2018-04-25T05:09:42.172Z,25.38
2018-04-25T05:10:42.122Z,25.30
2018-04-25T05:11:42.154Z,25.32
2018-04-25T05:12:42.192Z,25.34
2018-04-25T05:13:42.065Z,25.30
2018-04-25T05:14:42.027Z,25.29
2018-04-25T05:15:41.995Z,25.30
2018-04-25T05:16:41.969Z,25.27
2018-04-25T05:17:41.996Z,25.24
2018-04-25T05:18:41.946Z,25.32
2018-04-25T05:19:41.939Z,25.24
2018-04-25T05:20:41.873Z,25.29
2018-04-25T05:21:41.871Z,25.17
2018-04-25T05:22:41.922Z,25.15
2018-04-25T05:23:41.797Z,25.19
2018-04-25T05:24:41.961Z,25.22
2018-04-25T05:25:41.727Z,25.22
2018-04-25T05:26:41.765Z,25.20
2018-04-25T05:27:41.788Z,25.12
2018-04-25T05:28:41.653Z,25.22
2018-04-25T05:29:41.627Z,25.23
2018-04-25T05:30:41.622Z,25.19
2018-04-25T05:31:41.601Z,25.15
2018-04-25T05:32:41.649Z,25.23
2018-04-25T05:33:41.541Z,25.17
2018-04-25T05:34:41.494Z,25.12
2018-04-25T05:35:41.494Z,25.11
2018-04-25T05:36:41.465Z,25.19
2018-04-25T05:37:41.414Z,25.09
2018-04-25T05:38:41.548Z,25.09
2018-04-25T05:39:41.360Z,25.23
2018-04-25T05:40:41.356Z,25.27
2018-04-25T05:41:41.327Z,25.22
2018-04-25T05:42:41.314Z,25.20
2018-04-25T05:43:41.256Z,25.15
2018-04-25T05:44:41.302Z,25.15
2018-04-25T05:45:41.223Z,25.12
2018-04-25T05:46:41.181Z,25.09
2018-04-25T05:47:41.241Z,25.15
2018-04-25T05:48:41.141Z,25.11
2018-04-25T05:49:41.320Z,25.05
2018-04-25T05:50:41.099Z,25.08
2018-04-25T05:51:41.090Z,25.14
2018-04-25T05:52:41.028Z,25.14
2018-04-25T05:53:41.018Z,25.12
2018-04-25T05:54:41.041Z,25.20
2018-04-25T05:55:40.939Z,25.23
2018-04-25T05:56:40.933Z,25.22
2018-04-25T05:57:40.929Z,25.15
2018-04-25T05:58:40.852Z,25.08
2018-04-25T05:59:40.932Z,25.12
2018-04-25T06:00:40.812Z,25.12
2018-04-25T06:01:40.784Z,25.15
2018-04-25T06:02:40.775Z,25.08
2018-04-25T06:03:40.750Z,25.07
2018-04-25T06:04:40.849Z,25.05
2018-04-25T06:05:40.680Z,25.01
2018-04-25T06:06:40.856Z,25.07
2018-04-25T06:07:40.984Z,25.01
2018-04-25T06:08:40.804Z,24.96
2018-04-25T06:09:40.681Z,24.96
2018-04-25T06:10:40.668Z,24.90
2018-04-25T06:11:40.649Z,24.90
2018-04-25T06:12:40.511Z,24.96
2018-04-25T06:13:40.483Z,24.93
2018-04-25T06:14:40.438Z,24.93
2018-04-25T06:15:40.549Z,24.86
2018-04-25T06:16:40.411Z,24.94
2018-04-25T06:17:40.375Z,24.94
2018-04-25T06:18:40.352Z,24.93
2018-04-25T06:19:40.309Z,24.92
2018-04-25T06:20:40.283Z,24.97
2018-04-25T06:21:40.356Z,24.92
2018-04-25T06:22:40.235Z,24.93
2018-04-25T06:23:40.199Z,24.92
2018-04-25T06:24:40.186Z,24.96
2018-04-25T06:25:40.165Z,24.90
2018-04-25T06:26:40.293Z,25.01
2018-04-25T06:27:40.105Z,24.96
2018-04-25T06:28:40.129Z,25.01
2018-04-25T06:29:40.047Z,24.97
2018-04-25T06:30:40.019Z,25.02
2018-04-25T06:31:40.053Z,25.02
2018-04-25T06:32:39.987Z,24.92
2018-04-25T06:33:39.942Z,24.87
2018-04-25T06:34:39.958Z,24.90
2018-04-25T06:35:39.896Z,24.96
2018-04-25T06:36:39.963Z,24.93
2018-04-25T06:37:39.909Z,24.96
2018-04-25T06:38:39.842Z,24.94
2018-04-25T06:39:39.778Z,24.93
2018-04-25T06:40:39.798Z,24.96
2018-04-25T06:41:39.841Z,24.89
2018-04-25T06:42:39.703Z,24.87
2018-04-25T06:43:39.692Z,24.89
2018-04-25T06:44:39.697Z,24.90
2018-04-25T06:45:39.621Z,24.94
2018-04-25T06:46:39.700Z,24.94
2018-04-25T06:47:39.572Z,25.02
2018-04-25T06:48:39.551Z,25.04
2018-04-25T06:49:39.635Z,25.00
2018-04-25T06:50:39.572Z,24.97
2018-04-25T06:51:39.445Z,24.96
2018-04-25T06:52:39.476Z,24.96
2018-04-25T06:53:39.404Z,24.97
2018-04-25T06:54:39.384Z,24.96
2018-04-25T06:55:39.368Z,24.93
2018-04-25T06:56:39.344Z,24.89
2018-04-25T06:57:39.322Z,24.87
2018-04-25T06:58:39.401Z,24.90
2018-04-25T06:59:39.254Z,24.89
2018-04-25T07:00:39.206Z,24.90
2018-04-25T07:01:39.196Z,24.85
2018-04-25T07:02:39.165Z,24.85
2018-04-25T07:03:39.237Z,24.82
2018-04-25T07:04:39.117Z,24.83
2018-04-25T07:05:39.078Z,24.82
2018-04-25T07:06:39.067Z,24.90
2018-04-25T07:07:39.025Z,24.89
2018-04-25T07:08:39.107Z,24.75
2018-04-25T07:09:39.002Z,24.93
2018-04-25T07:10:38.986Z,24.92
2018-04-25T07:11:38.945Z,24.96
2018-04-25T07:12:38.905Z,24.89
2018-04-25T07:13:38.928Z,24.92
2018-04-25T07:14:38.848Z,24.93
2018-04-25T07:15:38.834Z,24.90
2018-04-25T07:16:38.782Z,24.94
2018-04-25T07:17:38.761Z,24.93
2018-04-25T07:18:38.849Z,24.93
2018-04-25T07:19:38.718Z,24.89
2018-04-25T07:20:38.681Z,25.01
2018-04-25T07:21:38.678Z,24.90
2018-04-25T07:22:38.638Z,24.92
2018-04-25T07:23:38.702Z,24.92
2018-04-25T07:24:38.595Z,24.82
2018-04-25T07:25:38.569Z,24.87
2018-04-25T07:26:38.542Z,24.94
2018-04-25T07:27:38.494Z,24.94
2018-04-25T07:28:38.535Z,24.90
2018-04-25T07:29:38.557Z,24.89
2018-04-25T07:30:38.416Z,24.93
2018-04-25T07:31:38.385Z,24.89
2018-04-25T07:32:38.369Z,24.93
2018-04-25T07:33:38.350Z,24.87
2018-04-25T07:34:38.313Z,24.86
2018-04-25T07:35:38.424Z,24.90
2018-04-25T07:36:38.263Z,24.93
2018-04-25T07:37:38.332Z,24.82
2018-04-25T07:38:38.208Z,24.80
2018-04-25T07:39:38.184Z,24.77
2018-04-25T07:40:38.220Z,24.78
2018-04-25T07:41:38.148Z,24.74
2018-04-25T07:42:38.130Z,24.75
2018-04-25T07:43:38.105Z,24.69
2018-04-25T07:44:38.039Z,24.69
2018-04-25T07:45:38.134Z,24.70
2018-04-25T07:46:37.978Z,24.78
2018-04-25T07:47:37.966Z,24.75
2018-04-25T07:48:37.954Z,24.70
2018-04-25T07:49:37.913Z,24.67
2018-04-25T07:50:38.032Z,24.64
2018-04-25T07:51:37.873Z,24.64
2018-04-25T07:52:37.848Z,24.63
2018-04-25T07:53:37.896Z,24.58
2018-04-25T07:54:37.796Z,24.63
2018-04-25T07:55:37.815Z,24.61
2018-04-25T07:56:37.728Z,24.61
2018-04-25T07:57:37.793Z,24.61
2018-04-25T07:58:37.709Z,24.67
2018-04-25T07:59:37.720Z,24.59
2018-04-25T08:00:37.715Z,24.59
2018-04-25T08:01:37.612Z,24.64
2018-04-25T08:02:37.595Z,24.69
2018-04-25T08:03:37.589Z,24.67
2018-04-25T08:04:37.531Z,24.59
2018-04-25T08:05:37.504Z,24.59
2018-04-25T08:06:37.562Z,24.61
2018-04-25T08:07:37.430Z,24.58
2018-04-25T08:08:37.401Z,24.59
2018-04-25T08:09:37.366Z,24.63
2018-04-25T08:10:37.345Z,24.61
2018-04-25T08:11:37.333Z,24.61
2018-04-25T08:12:37.415Z,24.61
2018-04-25T08:13:37.275Z,24.54
2018-04-25T08:14:37.277Z,24.59
2018-04-25T08:15:37.256Z,24.58
2018-04-25T08:16:37.193Z,24.58
2018-04-25T08:17:37.263Z,24.58
2018-04-25T08:18:37.219Z,24.56
2018-04-25T08:19:37.140Z,24.61
2018-04-25T08:20:37.084Z,24.55
2018-04-25T08:21:37.047Z,24.54
2018-04-25T08:22:37.121Z,24.56
2018-04-25T08:23:37.009Z,24.58
2018-04-25T08:24:36.971Z,24.61
2018-04-25T08:25:36.960Z,24.69
2018-04-25T08:26:36.934Z,24.63
2018-04-25T08:27:36.925Z,24.59
2018-04-25T08:28:36.865Z,24.66
2018-04-25T08:29:36.853Z,24.46
2018-04-25T08:30:36.818Z,24.49
2018-04-25T08:31:36.834Z,24.49
2018-04-25T08:32:36.856Z,24.51
2018-04-25T08:33:36.787Z,24.55
2018-04-25T08:34:36.741Z,24.55
2018-04-25T08:35:36.671Z,24.66
2018-04-25T08:36:36.650Z,24.55
2018-04-25T08:37:36.620Z,24.51
2018-04-25T08:38:36.700Z,24.51
2018-04-25T08:39:36.561Z,24.51
2018-04-25T08:40:36.547Z,24.49
2018-04-25T08:41:36.520Z,24.48
2018-04-25T08:42:36.483Z,24.52
2018-04-25T08:43:36.453Z,24.45
2018-04-25T08:44:36.529Z,24.42
2018-04-25T08:45:36.437Z,24.39
2018-04-25T08:46:36.419Z,24.59
2018-04-25T08:47:36.344Z,24.44
2018-04-25T08:48:36.345Z,24.54
2018-04-25T08:49:36.299Z,24.39
2018-04-25T08:50:36.363Z,24.45
2018-04-25T08:51:36.251Z,24.42
2018-04-25T08:52:36.238Z,24.40
2018-04-25T08:53:36.207Z,24.44
2018-04-25T08:54:36.211Z,24.52
2018-04-25T08:55:36.272Z,24.51
2018-04-25T08:56:36.205Z,24.48
2018-04-25T08:57:36.091Z,24.45
2018-04-25T08:58:36.045Z,24.44
2018-04-25T08:59:36.024Z,24.49
2018-04-25T09:00:36.036Z,24.54
2018-04-25T09:01:35.973Z,24.51
2018-04-25T09:02:35.944Z,24.51
2018-04-25T09:03:35.931Z,24.54
2018-04-25T09:04:35.964Z,24.51
2018-04-25T09:05:35.966Z,24.51
2018-04-25T09:06:35.833Z,24.54
2018-04-25T09:07:35.812Z,24.46
2018-04-25T09:08:35.777Z,24.48
2018-04-25T09:09:35.749Z,24.45
2018-04-25T09:10:35.739Z,24.48
2018-04-25T09:11:35.754Z,24.48
2018-04-25T09:12:35.669Z,24.51
2018-04-25T09:13:35.646Z,24.48
2018-04-25T09:14:35.633Z,24.44
2018-04-25T09:15:35.654Z,24.52
2018-04-25T09:16:35.647Z,24.46
2018-04-25T09:17:35.548Z,24.64
2018-04-25T09:18:35.508Z,24.55
2018-04-25T09:19:35.478Z,24.56
2018-04-25T09:20:35.465Z,24.56
2018-04-25T09:21:35.421Z,24.55
2018-04-25T09:22:35.451Z,24.59
2018-04-25T09:23:35.368Z,24.67
2018-04-25T09:24:35.390Z,24.49
2018-04-25T09:25:35.320Z,24.49
2018-04-25T09:26:35.292Z,24.54
2018-04-25T09:27:35.283Z,24.52
2018-04-25T09:28:35.365Z,24.46
2018-04-25T09:29:35.231Z,24.49
2018-04-25T09:30:35.182Z,24.49
2018-04-25T09:31:35.170Z,24.58
2018-04-25T09:32:35.147Z,24.51
2018-04-25T09:33:35.228Z,24.67
2018-04-25T09:34:35.161Z,24.63
2018-04-25T09:35:35.049Z,24.59
2018-04-25T09:36:35.023Z,24.52
2018-04-25T09:37:34.999Z,24.52
2018-04-25T09:38:35.019Z,24.44
2018-04-25T09:39:34.939Z,24.49
2018-04-25T09:40:34.913Z,24.44
2018-04-25T09:41:34.887Z,24.40
2018-04-25T09:42:34.857Z,24.52
2018-04-25T09:43:34.893Z,24.45
2018-04-25T09:44:34.931Z,24.49
2018-04-25T09:45:34.793Z,24.48
2018-04-25T09:46:34.772Z,24.45
2018-04-25T09:47:34.736Z,24.44
2018-04-25T09:48:34.712Z,24.52
2018-04-25T09:49:34.721Z,24.51
2018-04-25T09:50:34.761Z,24.55
2018-04-25T09:51:34.633Z,24.51
2018-04-25T09:52:34.601Z,24.51
2018-04-25T09:53:34.582Z,24.48
2018-04-25T09:54:34.540Z,24.52
2018-04-25T09:55:34.536Z,24.51
2018-04-25T09:56:34.585Z,24.46
2018-04-25T09:57:34.583Z,24.45
2018-04-25T09:58:34.439Z,24.55
2018-04-25T09:59:34.405Z,24.48
2018-04-25T10:00:34.399Z,24.46
2018-04-25T10:01:34.392Z,24.49
2018-04-25T10:02:34.422Z,24.48
2018-04-25T10:03:34.299Z,24.44
2018-04-25T10:04:34.313Z,24.51
2018-04-25T10:05:34.242Z,24.48
2018-04-25T10:06:34.218Z,24.49
2018-04-25T10:07:34.231Z,24.56
2018-04-25T10:08:34.158Z,24.52
2018-04-25T10:09:34.132Z,24.54
2018-04-25T10:10:34.109Z,24.45
2018-04-25T10:11:34.095Z,24.55
2018-04-25T10:12:34.090Z,24.42
2018-04-25T10:13:34.026Z,24.45
2018-04-25T10:14:34.019Z,24.48
2018-04-25T10:15:33.992Z,24.51
2018-04-25T10:16:33.933Z,24.44
2018-04-25T10:17:33.969Z,24.45
2018-04-25T10:18:34.008Z,24.52
2018-04-25T10:19:33.872Z,24.52
2018-04-25T10:20:33.887Z,24.49
2018-04-25T10:21:33.924Z,24.51
2018-04-25T10:22:33.817Z,24.55
2018-04-25T10:23:33.754Z,24.64
2018-04-25T10:24:33.826Z,24.64
2018-04-25T10:25:33.791Z,24.56
2018-04-25T10:26:33.666Z,24.66
2018-04-25T10:27:33.655Z,24.61
2018-04-25T10:28:33.625Z,24.51
2018-04-25T10:29:33.643Z,24.49
2018-04-25T10:30:33.642Z,24.52
2018-04-25T10:31:33.538Z,24.52
2018-04-25T10:32:33.509Z,24.45
2018-04-25T10:33:33.501Z,24.54
2018-04-25T10:34:33.481Z,24.48
2018-04-25T10:35:33.497Z,24.46
2018-04-25T10:36:33.416Z,24.46
2018-04-25T10:37:33.382Z,24.44
2018-04-25T10:38:33.356Z,24.48
2018-04-25T10:39:33.548Z,24.48
2018-04-25T10:40:33.387Z,24.46
2018-04-25T10:41:33.302Z,24.52
2018-04-25T10:42:33.239Z,24.54
2018-04-25T10:43:33.227Z,24.48
2018-04-25T10:44:33.200Z,24.49
2018-04-25T10:45:33.269Z,24.46
2018-04-25T10:46:33.143Z,24.49
2018-04-25T10:47:33.131Z,24.54
2018-04-25T10:48:33.069Z,24.54
2018-04-25T10:49:33.060Z,24.52
2018-04-25T10:50:33.122Z,24.49
2018-04-25T10:51:32.996Z,24.55
2018-04-25T10:52:32.975Z,24.46
2018-04-25T10:53:32.960Z,24.48
2018-04-25T10:54:32.942Z,24.49
2018-04-25T10:55:32.899Z,24.48
2018-04-25T10:56:32.922Z,24.51
2018-04-25T10:57:32.831Z,24.56
2018-04-25T10:58:32.810Z,24.48
2018-04-25T10:59:32.790Z,24.52
2018-04-25T11:00:32.762Z,24.51
2018-04-25T11:01:32.843Z,24.51
2018-04-25T11:02:32.829Z,24.49
2018-04-25T11:03:32.690Z,24.49
2018-04-25T11:04:32.704Z,24.66
2018-04-25T11:05:32.618Z,24.52
2018-04-25T11:06:32.634Z,24.66
2018-04-25T11:07:32.605Z,24.54
2018-04-25T11:08:32.561Z,24.55
2018-04-25T11:09:32.520Z,24.49
2018-04-25T11:10:32.509Z,24.52
2018-04-25T11:11:32.464Z,24.56
2018-04-25T11:12:32.492Z,24.52
2018-04-25T11:13:32.403Z,24.55
2018-04-25T11:14:32.396Z,24.45
2018-04-25T11:15:32.757Z,24.48
2018-04-25T11:16:32.316Z,24.51
2018-04-25T11:17:32.306Z,24.58
2018-04-25T11:18:32.391Z,24.49
2018-04-25T11:19:32.258Z,24.52
2018-04-25T11:20:32.223Z,24.52
2018-04-25T11:21:32.200Z,24.48
2018-04-25T11:22:32.164Z,24.49
2018-04-25T11:23:32.254Z,24.49
2018-04-25T11:24:32.104Z,24.63
2018-04-25T11:25:32.108Z,24.56
2018-04-25T11:26:32.071Z,24.61
2018-04-25T11:27:32.024Z,24.56
2018-04-25T11:28:32.005Z,24.61
2018-04-25T11:29:32.025Z,24.51
2018-04-25T11:30:31.939Z,24.64
2018-04-25T11:31:31.919Z,24.64
2018-04-25T11:32:31.898Z,24.59
2018-04-25T11:33:31.863Z,24.67
2018-04-25T11:34:31.957Z,24.61
2018-04-25T11:35:31.816Z,24.61
2018-04-25T11:36:31.786Z,24.58
2018-04-25T11:37:31.758Z,24.55
2018-04-25T11:38:31.733Z,24.61
2018-04-25T11:39:31.803Z,24.58
2018-04-25T11:40:31.681Z,24.67
2018-04-25T11:41:31.641Z,24.66
2018-04-25T11:42:31.639Z,24.59
2018-04-25T11:43:31.600Z,24.55
2018-04-25T11:44:31.663Z,24.69
2018-04-25T11:45:31.532Z,24.80
2018-04-25T11:46:31.502Z,24.80
2018-04-25T11:47:31.506Z,24.74
2018-04-25T11:48:31.479Z,24.77
2018-04-25T11:49:31.432Z,24.71
2018-04-25T11:50:31.494Z,24.75
2018-04-25T11:51:31.445Z,24.87
2018-04-25T11:52:31.460Z,24.86
2018-04-25T11:53:31.345Z,24.83
2018-04-25T11:54:31.334Z,24.78
2018-04-25T11:55:31.296Z,24.78
2018-04-25T11:56:31.359Z,24.85
2018-04-25T11:57:31.261Z,24.82
2018-04-25T11:58:31.192Z,24.85
2018-04-25T11:59:31.218Z,24.80
2018-04-25T12:00:31.161Z,24.92
2018-04-25T12:01:31.191Z,24.87
2018-04-25T12:02:31.218Z,24.94
2018-04-25T12:03:31.224Z,24.93
2018-04-25T12:04:31.024Z,24.94
2018-04-25T12:05:31.042Z,24.94
2018-04-25T12:06:31.010Z,24.89
2018-04-25T12:07:31.010Z,24.97
2018-04-25T12:08:30.942Z,25.00
2018-04-25T12:09:30.942Z,25.09
2018-04-25T12:10:30.892Z,25.12
2018-04-25T12:11:30.845Z,25.09
2018-04-25T12:12:30.944Z,25.05
2018-04-25T12:13:30.795Z,25.08
2018-04-25T12:14:30.775Z,25.09
2018-04-25T12:15:30.738Z,25.12
2018-04-25T12:16:30.719Z,25.15
2018-04-25T12:17:30.781Z,25.15
2018-04-25T12:18:30.673Z,25.14
2018-04-25T12:19:30.629Z,25.22
2018-04-25T12:20:30.597Z,25.23
2018-04-25T12:21:30.584Z,25.32
2018-04-25T12:22:30.657Z,25.26
2018-04-25T12:23:30.535Z,25.29
2018-04-25T12:24:30.508Z,25.34
2018-04-25T12:25:30.477Z,25.29
2018-04-25T12:26:30.478Z,25.32
2018-04-25T12:27:30.433Z,25.29
2018-04-25T12:28:30.489Z,25.33
2018-04-25T12:29:30.366Z,25.26
2018-04-25T12:30:30.344Z,25.23
2018-04-25T12:31:30.293Z,25.26
2018-04-25T12:32:30.289Z,25.34
2018-04-25T12:33:30.259Z,25.29
2018-04-25T12:34:30.296Z,25.34
2018-04-25T12:35:30.202Z,25.37
2018-04-25T12:36:30.187Z,25.44
2018-04-25T12:37:30.153Z,25.30
2018-04-25T12:38:30.116Z,25.37
2018-04-25T12:39:30.161Z,25.39
2018-04-25T12:40:30.215Z,25.44
2018-04-25T12:41:30.037Z,25.44
2018-04-25T12:42:30.041Z,25.48
2018-04-25T12:43:30.010Z,25.47
2018-04-25T12:44:29.963Z,25.56
2018-04-25T12:45:30.032Z,25.45
2018-04-25T12:46:29.899Z,25.60
2018-04-25T12:47:29.873Z,25.49
2018-04-25T12:48:29.848Z,25.57
2018-04-25T12:49:29.873Z,25.54
2018-04-25T12:50:29.854Z,25.64
2018-04-25T12:51:29.789Z,25.64
2018-04-25T12:52:29.779Z,25.67